QTR14 EDDF-EDDL
Flight info
| Callsign | QTR14 |
|---|---|
| Flight time | 0h 49m |
| Altitude | 22000 |
| Route | MARUN7F/25C MARUN Y152 ARPEG Z850 ADEMI T854 DOMUX DOMUX1A |
| Aircraft | A35K/H-SDE2E3GHIJ3J4J5LM1ORWXY/LB1D1 |
Departure
| Time | 2026-05-04 18:33 |
|---|---|
| Airport | Frankfurt Main Airport (EDDF) |
Arrival
| Time | 2026-05-04 19:22 |
|---|---|
| Airport | Düsseldorf Airport (EDDL) |
| Time | Latitude | Longitude | Altitude | Speed | Heading |
|---|---|---|---|---|---|
| 2026-05-04 17:37 | 50.03543 | 8.58812 | 364 ft | 0 kts | 291° |
| 2026-05-04 18:10 | 50.03543 | 8.58815 | 364 ft | 2 kts | 291° |
| 2026-05-04 18:10 | 50.03531 | 8.58851 | 367 ft | 4 kts | 300° |
| 2026-05-04 18:10 | 50.03521 | 8.58881 | 365 ft | 4 kts | 300° |
| 2026-05-04 18:11 | 50.03504 | 8.58908 | 366 ft | 4 kts | 346° |
| 2026-05-04 18:11 | 50.03479 | 8.58907 | 367 ft | 4 kts | 21° |
| 2026-05-04 18:11 | 50.03456 | 8.58891 | 368 ft | 4 kts | 25° |
| 2026-05-04 18:11 | 50.03432 | 8.58874 | 365 ft | 3 kts | 25° |
| 2026-05-04 18:12 | 50.03429 | 8.58872 | 365 ft | 1 kts | 25° |
| 2026-05-04 18:17 | 50.03442 | 8.58881 | 368 ft | 3 kts | 24° |
| 2026-05-04 18:17 | 50.03522 | 8.58937 | 367 ft | 9 kts | 21° |
| 2026-05-04 18:18 | 50.03596 | 8.58933 | 371 ft | 13 kts | 343° |
| 2026-05-04 18:18 | 50.03620 | 8.58920 | 370 ft | 1 kts | 340° |
| 2026-05-04 18:18 | 50.03638 | 8.58910 | 373 ft | 4 kts | 340° |
| 2026-05-04 18:18 | 50.03657 | 8.58899 | 369 ft | 0 kts | 340° |
| 2026-05-04 18:20 | 50.03659 | 8.58898 | 368 ft | 1 kts | 340° |
| 2026-05-04 18:20 | 50.03668 | 8.58893 | 373 ft | 0 kts | 340° |
| 2026-05-04 18:20 | 50.03669 | 8.58892 | 373 ft | 0 kts | 340° |
| 2026-05-04 18:20 | 50.03678 | 8.58887 | 373 ft | 3 kts | 340° |
| 2026-05-04 18:21 | 50.03703 | 8.58873 | 372 ft | 5 kts | 340° |
| 2026-05-04 18:21 | 50.03736 | 8.58841 | 374 ft | 7 kts | 311° |
| 2026-05-04 18:21 | 50.03743 | 8.58758 | 370 ft | 9 kts | 264° |
| 2026-05-04 18:21 | 50.03718 | 8.58644 | 371 ft | 13 kts | 250° |
| 2026-05-04 18:22 | 50.03680 | 8.58491 | 372 ft | 17 kts | 248° |
| 2026-05-04 18:22 | 50.03639 | 8.58318 | 369 ft | 15 kts | 251° |
| 2026-05-04 18:22 | 50.03612 | 8.58204 | 372 ft | 7 kts | 250° |
| 2026-05-04 18:22 | 50.03616 | 8.58123 | 369 ft | 9 kts | 294° |
| 2026-05-04 18:23 | 50.03662 | 8.58077 | 372 ft | 9 kts | 337° |
| 2026-05-04 18:23 | 50.03720 | 8.58041 | 373 ft | 0 kts | 338° |
| 2026-05-04 18:23 | 50.03721 | 8.58041 | 373 ft | 1 kts | 338° |
| 2026-05-04 18:24 | 50.03734 | 8.58033 | 376 ft | 3 kts | 339° |
| 2026-05-04 18:24 | 50.03764 | 8.58015 | 374 ft | 6 kts | 339° |
| 2026-05-04 18:24 | 50.03813 | 8.57987 | 374 ft | 9 kts | 339° |
| 2026-05-04 18:24 | 50.03886 | 8.57946 | 375 ft | 13 kts | 340° |
| 2026-05-04 18:25 | 50.03971 | 8.57897 | 375 ft | 15 kts | 340° |
| 2026-05-04 18:25 | 50.04054 | 8.57886 | 376 ft | 12 kts | 37° |
| 2026-05-04 18:25 | 50.04098 | 8.58007 | 377 ft | 15 kts | 66° |
| 2026-05-04 18:25 | 50.04136 | 8.58169 | 374 ft | 18 kts | 70° |
| 2026-05-04 18:26 | 50.04182 | 8.58362 | 374 ft | 19 kts | 70° |
| 2026-05-04 18:26 | 50.04220 | 8.58521 | 375 ft | 10 kts | 69° |
| 2026-05-04 18:26 | 50.04273 | 8.58610 | 375 ft | 13 kts | 18° |
| 2026-05-04 18:26 | 50.04341 | 8.58626 | 375 ft | 7 kts | 7° |
| 2026-05-04 18:27 | 50.04371 | 8.58632 | 376 ft | 0 kts | 7° |
| 2026-05-04 18:31 | 50.04390 | 8.58635 | 376 ft | 6 kts | 7° |
| 2026-05-04 18:31 | 50.04440 | 8.58639 | 377 ft | 9 kts | 353° |
| 2026-05-04 18:32 | 50.04475 | 8.58565 | 376 ft | 10 kts | 272° |
| 2026-05-04 18:32 | 50.04451 | 8.58436 | 376 ft | 16 kts | 250° |
| 2026-05-04 18:32 | 50.04323 | 8.57911 | 374 ft | 96 kts | 250° |
| 2026-05-04 18:32 | 50.03998 | 8.56543 | 369 ft | 171 kts | 251° |
| 2026-05-04 18:33 | 50.03550 | 8.54653 | 871 ft | 199 kts | 251° |
| 2026-05-04 18:33 | 50.03030 | 8.52535 | 1649 ft | 220 kts | 250° |
| 2026-05-04 18:33 | 50.02445 | 8.50191 | 2362 ft | 243 kts | 251° |
| 2026-05-04 18:33 | 50.02125 | 8.47554 | 3227 ft | 253 kts | 269° |
| 2026-05-04 18:34 | 50.02386 | 8.44876 | 4122 ft | 243 kts | 288° |
| 2026-05-04 18:34 | 50.03228 | 8.42667 | 4916 ft | 238 kts | 311° |
| 2026-05-04 18:34 | 50.04406 | 8.40806 | 5680 ft | 248 kts | 313° |
| 2026-05-04 18:34 | 50.05731 | 8.39012 | 6562 ft | 258 kts | 321° |
| 2026-05-04 18:35 | 50.07220 | 8.37328 | 7402 ft | 271 kts | 322° |
| 2026-05-04 18:35 | 50.08770 | 8.35573 | 8342 ft | 280 kts | 321° |
| 2026-05-04 18:35 | 50.10415 | 8.33862 | 9385 ft | 289 kts | 329° |
| 2026-05-04 18:35 | 50.12370 | 8.32981 | 10385 ft | 302 kts | 354° |
| 2026-05-04 18:36 | 50.14536 | 8.33386 | 10949 ft | 329 kts | 14° |
| 2026-05-04 18:36 | 50.16812 | 8.34479 | 11421 ft | 354 kts | 17° |
| 2026-05-04 18:36 | 50.19219 | 8.35700 | 12040 ft | 372 kts | 17° |
| 2026-05-04 18:36 | 50.21734 | 8.36945 | 12660 ft | 384 kts | 16° |
| 2026-05-04 18:37 | 50.24296 | 8.38189 | 13045 ft | 389 kts | 16° |
| 2026-05-04 18:37 | 50.26895 | 8.39437 | 13875 ft | 393 kts | 15° |
| 2026-05-04 18:37 | 50.29521 | 8.40693 | 14828 ft | 396 kts | 15° |
| 2026-05-04 18:37 | 50.32150 | 8.42044 | 15719 ft | 401 kts | 18° |
| 2026-05-04 18:38 | 50.34789 | 8.43518 | 16698 ft | 402 kts | 19° |
| 2026-05-04 18:38 | 50.37431 | 8.44995 | 17684 ft | 405 kts | 18° |
| 2026-05-04 18:38 | 50.40104 | 8.46476 | 18532 ft | 410 kts | 18° |
| 2026-05-04 18:38 | 50.42817 | 8.47970 | 19322 ft | 415 kts | 18° |
| 2026-05-04 18:39 | 50.45560 | 8.49478 | 20148 ft | 420 kts | 18° |
| 2026-05-04 18:39 | 50.48334 | 8.50996 | 20977 ft | 425 kts | 17° |
| 2026-05-04 18:39 | 50.51168 | 8.52394 | 21633 ft | 429 kts | 15° |
| 2026-05-04 18:39 | 50.54044 | 8.53733 | 21930 ft | 432 kts | 15° |
| 2026-05-04 18:40 | 50.56927 | 8.55084 | 21991 ft | 433 kts | 15° |
| 2026-05-04 18:40 | 50.59818 | 8.56453 | 21977 ft | 434 kts | 15° |
| 2026-05-04 18:40 | 50.62713 | 8.57833 | 21974 ft | 435 kts | 15° |
| 2026-05-04 18:40 | 50.65605 | 8.59218 | 21974 ft | 435 kts | 15° |
| 2026-05-04 18:41 | 50.68497 | 8.60607 | 21975 ft | 435 kts | 15° |
| 2026-05-04 18:41 | 50.71402 | 8.62005 | 21975 ft | 435 kts | 15° |
| 2026-05-04 18:41 | 50.74287 | 8.63397 | 21967 ft | 435 kts | 15° |
| 2026-05-04 18:41 | 50.77177 | 8.64487 | 21966 ft | 433 kts | 5° |
| 2026-05-04 18:42 | 50.80162 | 8.64484 | 21971 ft | 427 kts | 348° |
| 2026-05-04 18:42 | 50.82975 | 8.63179 | 21973 ft | 420 kts | 332° |
| 2026-05-04 18:42 | 50.85415 | 8.60730 | 21974 ft | 414 kts | 316° |
| 2026-05-04 18:42 | 50.87465 | 8.57558 | 21952 ft | 411 kts | 309° |
| 2026-05-04 18:43 | 50.89361 | 8.54175 | 21976 ft | 410 kts | 307° |
| 2026-05-04 18:43 | 50.91186 | 8.50703 | 21975 ft | 410 kts | 306° |
| 2026-05-04 18:43 | 50.92988 | 8.47198 | 21988 ft | 410 kts | 306° |
| 2026-05-04 18:43 | 50.94796 | 8.43690 | 21988 ft | 411 kts | 306° |
| 2026-05-04 18:44 | 50.96615 | 8.40194 | 21973 ft | 411 kts | 306° |
| 2026-05-04 18:44 | 50.97233 | 8.39014 | 21991 ft | 411 kts | 307° |
| 2026-05-04 18:44 | 51.00312 | 8.33269 | 21971 ft | 413 kts | 310° |
| 2026-05-04 18:44 | 51.02483 | 8.30259 | 21994 ft | 417 kts | 322° |
| 2026-05-04 18:45 | 51.04906 | 8.27715 | 21985 ft | 418 kts | 325° |
| 2026-05-04 18:45 | 51.07412 | 8.25347 | 21980 ft | 417 kts | 327° |
| 2026-05-04 18:45 | 51.09889 | 8.23142 | 21980 ft | 399 kts | 328° |
| 2026-05-04 18:45 | 51.12279 | 8.21072 | 21982 ft | 383 kts | 328° |
| 2026-05-04 18:46 | 51.14601 | 8.19062 | 21978 ft | 379 kts | 328° |
| 2026-05-04 18:46 | 51.16911 | 8.17043 | 21983 ft | 379 kts | 327° |
| 2026-05-04 18:46 | 51.19220 | 8.15002 | 21981 ft | 379 kts | 327° |
| 2026-05-04 18:46 | 51.21520 | 8.12953 | 21979 ft | 379 kts | 327° |
| 2026-05-04 18:47 | 51.23820 | 8.10893 | 21997 ft | 379 kts | 327° |
| 2026-05-04 18:47 | 51.26125 | 8.08824 | 21981 ft | 380 kts | 327° |
| 2026-05-04 18:47 | 51.28430 | 8.06751 | 21981 ft | 381 kts | 327° |
| 2026-05-04 18:47 | 51.30733 | 8.04683 | 21983 ft | 381 kts | 327° |
| 2026-05-04 18:48 | 51.33187 | 8.03039 | 21985 ft | 385 kts | 344° |
| 2026-05-04 18:48 | 51.35831 | 8.02712 | 21971 ft | 378 kts | 4° |
| 2026-05-04 18:48 | 51.38320 | 8.03794 | 21972 ft | 369 kts | 25° |
| 2026-05-04 18:48 | 51.40526 | 8.05867 | 21974 ft | 368 kts | 32° |
| 2026-05-04 18:49 | 51.42656 | 8.08144 | 21974 ft | 369 kts | 33° |
| 2026-05-04 18:49 | 51.44779 | 8.10445 | 21971 ft | 369 kts | 33° |
| 2026-05-04 18:49 | 51.46902 | 8.12751 | 21974 ft | 369 kts | 33° |
| 2026-05-04 18:49 | 51.49026 | 8.15059 | 21974 ft | 369 kts | 33° |
| 2026-05-04 18:50 | 51.50435 | 8.16592 | 21969 ft | 369 kts | 33° |
| 2026-05-04 18:50 | 51.52556 | 8.18900 | 21979 ft | 369 kts | 33° |
| 2026-05-04 18:50 | 51.54711 | 8.21141 | 21962 ft | 369 kts | 28° |
| 2026-05-04 18:50 | 51.57103 | 8.22517 | 21975 ft | 365 kts | 7° |
| 2026-05-04 18:51 | 51.59608 | 8.22485 | 21973 ft | 358 kts | 345° |
| 2026-05-04 18:51 | 51.61915 | 8.21095 | 21975 ft | 352 kts | 327° |
| 2026-05-04 18:51 | 51.64007 | 8.19041 | 21807 ft | 354 kts | 324° |
| 2026-05-04 18:51 | 51.66074 | 8.16875 | 21538 ft | 354 kts | 323° |
| 2026-05-04 18:52 | 51.68129 | 8.14701 | 21237 ft | 354 kts | 323° |
| 2026-05-04 18:52 | 51.70178 | 8.12526 | 20862 ft | 352 kts | 323° |
| 2026-05-04 18:52 | 51.72216 | 8.10356 | 20474 ft | 351 kts | 323° |
| 2026-05-04 18:52 | 51.74249 | 8.08187 | 20110 ft | 349 kts | 323° |
| 2026-05-04 18:53 | 51.76241 | 8.05974 | 19745 ft | 346 kts | 319° |
| 2026-05-04 18:53 | 51.77800 | 8.03096 | 19390 ft | 337 kts | 296° |
| 2026-05-04 18:53 | 51.78560 | 7.99607 | 19023 ft | 327 kts | 274° |
| 2026-05-04 18:53 | 51.78440 | 7.96008 | 18671 ft | 319 kts | 252° |
| 2026-05-04 18:54 | 51.77678 | 7.92661 | 18320 ft | 317 kts | 244° |
| 2026-05-04 18:54 | 51.76790 | 7.89411 | 17923 ft | 316 kts | 243° |
| 2026-05-04 18:54 | 51.75893 | 7.86181 | 17523 ft | 315 kts | 243° |
| 2026-05-04 18:54 | 51.74997 | 7.82966 | 17128 ft | 313 kts | 243° |
| 2026-05-04 18:55 | 51.74102 | 7.79768 | 16809 ft | 312 kts | 243° |
| 2026-05-04 18:55 | 51.72319 | 7.73422 | 16284 ft | 310 kts | 243° |
| 2026-05-04 18:55 | 51.71296 | 7.70389 | 16037 ft | 307 kts | 233° |
| 2026-05-04 18:56 | 51.69864 | 7.67868 | 15799 ft | 304 kts | 217° |
| 2026-05-04 18:56 | 51.68027 | 7.66267 | 15544 ft | 301 kts | 200° |
| 2026-05-04 18:56 | 51.66026 | 7.65294 | 15278 ft | 301 kts | 188° |
| 2026-05-04 18:56 | 51.63941 | 7.64973 | 15046 ft | 300 kts | 186° |
| 2026-05-04 18:57 | 51.61899 | 7.64558 | 14800 ft | 300 kts | 189° |
| 2026-05-04 18:57 | 51.59827 | 7.63906 | 14555 ft | 299 kts | 193° |
| 2026-05-04 18:57 | 51.57852 | 7.63041 | 14318 ft | 298 kts | 197° |
| 2026-05-04 18:57 | 51.55903 | 7.61914 | 14083 ft | 297 kts | 201° |
| 2026-05-04 18:58 | 51.54031 | 7.60521 | 13963 ft | 296 kts | 206° |
| 2026-05-04 18:58 | 51.52128 | 7.59146 | 13960 ft | 296 kts | 200° |
| 2026-05-04 18:58 | 51.50172 | 7.58159 | 13962 ft | 295 kts | 194° |
| 2026-05-04 18:58 | 51.48217 | 7.57366 | 13968 ft | 290 kts | 194° |
| 2026-05-04 18:59 | 51.46340 | 7.56357 | 13957 ft | 273 kts | 204° |
| 2026-05-04 18:59 | 51.44728 | 7.54891 | 13960 ft | 262 kts | 213° |
| 2026-05-04 18:59 | 51.43330 | 7.53100 | 13970 ft | 261 kts | 221° |
| 2026-05-04 18:59 | 51.42087 | 7.50976 | 13964 ft | 262 kts | 231° |
| 2026-05-04 19:00 | 51.41199 | 7.48369 | 13980 ft | 265 kts | 247° |
| 2026-05-04 19:00 | 51.40626 | 7.45561 | 13977 ft | 266 kts | 251° |
| 2026-05-04 19:00 | 51.40123 | 7.42748 | 13975 ft | 266 kts | 251° |
| 2026-05-04 19:00 | 51.39625 | 7.39893 | 13978 ft | 267 kts | 251° |
| 2026-05-04 19:01 | 51.39123 | 7.36996 | 13975 ft | 267 kts | 252° |
| 2026-05-04 19:01 | 51.38628 | 7.34138 | 13979 ft | 267 kts | 252° |
| 2026-05-04 19:01 | 51.38139 | 7.31309 | 13977 ft | 267 kts | 252° |
| 2026-05-04 19:01 | 51.37643 | 7.28449 | 13969 ft | 267 kts | 252° |
| 2026-05-04 19:02 | 51.37041 | 7.25658 | 13967 ft | 264 kts | 238° |
| 2026-05-04 19:02 | 51.35837 | 7.23516 | 13971 ft | 259 kts | 212° |
| 2026-05-04 19:02 | 51.34266 | 7.22141 | 13966 ft | 258 kts | 205° |
| 2026-05-04 19:02 | 51.32626 | 7.20990 | 13778 ft | 255 kts | 203° |
| 2026-05-04 19:03 | 51.31000 | 7.19889 | 13511 ft | 254 kts | 203° |
| 2026-05-04 19:03 | 51.29374 | 7.18792 | 13249 ft | 253 kts | 203° |
| 2026-05-04 19:03 | 51.27756 | 7.17702 | 12988 ft | 252 kts | 203° |
| 2026-05-04 19:03 | 51.26172 | 7.16540 | 12721 ft | 250 kts | 210° |
| 2026-05-04 19:04 | 51.24948 | 7.14594 | 12472 ft | 252 kts | 238° |
| 2026-05-04 19:04 | 51.24314 | 7.11966 | 12217 ft | 257 kts | 251° |
| 2026-05-04 19:04 | 51.24182 | 7.09109 | 11966 ft | 263 kts | 277° |
| 2026-05-04 19:04 | 51.24898 | 7.06421 | 11703 ft | 269 kts | 304° |
| 2026-05-04 19:05 | 51.26260 | 7.04370 | 11445 ft | 271 kts | 320° |
| 2026-05-04 19:05 | 51.27800 | 7.02617 | 11109 ft | 272 kts | 323° |
| 2026-05-04 19:05 | 51.29361 | 7.00910 | 10735 ft | 271 kts | 323° |
| 2026-05-04 19:05 | 51.30915 | 6.99218 | 10377 ft | 270 kts | 323° |
| 2026-05-04 19:06 | 51.32464 | 6.97529 | 10006 ft | 269 kts | 323° |
| 2026-05-04 19:06 | 51.34009 | 6.95839 | 9635 ft | 269 kts | 323° |
| 2026-05-04 19:06 | 51.35552 | 6.94157 | 9246 ft | 268 kts | 323° |
| 2026-05-04 19:06 | 51.37090 | 6.92475 | 8859 ft | 267 kts | 323° |
| 2026-05-04 19:07 | 51.38608 | 6.90781 | 8468 ft | 266 kts | 323° |
| 2026-05-04 19:07 | 51.40113 | 6.89084 | 8076 ft | 264 kts | 323° |
| 2026-05-04 19:07 | 51.41609 | 6.87400 | 7704 ft | 262 kts | 323° |
| 2026-05-04 19:07 | 51.43117 | 6.85768 | 7313 ft | 261 kts | 328° |
| 2026-05-04 19:08 | 51.44835 | 6.84927 | 6945 ft | 261 kts | 356° |
| 2026-05-04 19:08 | 51.46599 | 6.85458 | 6579 ft | 259 kts | 25° |
| 2026-05-04 19:08 | 51.48019 | 6.87183 | 6213 ft | 256 kts | 48° |
| 2026-05-04 19:08 | 51.49171 | 6.89353 | 5826 ft | 255 kts | 52° |
| 2026-05-04 19:09 | 51.50271 | 6.91580 | 5448 ft | 254 kts | 53° |
| 2026-05-04 19:09 | 51.51360 | 6.93808 | 5094 ft | 252 kts | 53° |
| 2026-05-04 19:09 | 51.52428 | 6.96000 | 4999 ft | 248 kts | 53° |
| 2026-05-04 19:09 | 51.53494 | 6.98188 | 4990 ft | 249 kts | 53° |
| 2026-05-04 19:10 | 51.54561 | 7.00376 | 4988 ft | 248 kts | 53° |
| 2026-05-04 19:10 | 51.55624 | 7.02558 | 4990 ft | 248 kts | 53° |
| 2026-05-04 19:10 | 51.56688 | 7.04743 | 4990 ft | 248 kts | 53° |
| 2026-05-04 19:10 | 51.57754 | 7.06929 | 4990 ft | 248 kts | 53° |
| 2026-05-04 19:11 | 51.58806 | 7.09089 | 4988 ft | 247 kts | 53° |
| 2026-05-04 19:11 | 51.59847 | 7.11220 | 4977 ft | 231 kts | 53° |
| 2026-05-04 19:11 | 51.60820 | 7.13210 | 4984 ft | 224 kts | 53° |
| 2026-05-04 19:11 | 51.61767 | 7.15146 | 4986 ft | 223 kts | 53° |
| 2026-05-04 19:12 | 51.62522 | 7.17299 | 4983 ft | 221 kts | 77° |
| 2026-05-04 19:12 | 51.61666 | 7.21633 | 4995 ft | 210 kts | 143° |
| 2026-05-04 19:12 | 51.60439 | 7.22941 | 4896 ft | 208 kts | 152° |
| 2026-05-04 19:13 | 51.59091 | 7.23714 | 4481 ft | 207 kts | 178° |
| 2026-05-04 19:13 | 51.57698 | 7.23343 | 4128 ft | 207 kts | 199° |
| 2026-05-04 19:13 | 51.56341 | 7.22534 | 3743 ft | 209 kts | 201° |
| 2026-05-04 19:13 | 51.54989 | 7.21652 | 3529 ft | 203 kts | 202° |
| 2026-05-04 19:14 | 51.53740 | 7.20802 | 3409 ft | 193 kts | 203° |
| 2026-05-04 19:14 | 51.52536 | 7.19959 | 3251 ft | 185 kts | 203° |
| 2026-05-04 19:14 | 51.51390 | 7.19149 | 3108 ft | 176 kts | 203° |
| 2026-05-04 19:14 | 51.50288 | 7.18368 | 2992 ft | 173 kts | 203° |
| 2026-05-04 19:15 | 51.49199 | 7.17535 | 2987 ft | 174 kts | 210° |
| 2026-05-04 19:15 | 51.48238 | 7.16348 | 2992 ft | 175 kts | 223° |
| 2026-05-04 19:15 | 51.47418 | 7.14911 | 2989 ft | 175 kts | 229° |
| 2026-05-04 19:15 | 51.46662 | 7.13393 | 2999 ft | 175 kts | 231° |
| 2026-05-04 19:16 | 51.45927 | 7.11848 | 2991 ft | 174 kts | 231° |
| 2026-05-04 19:16 | 51.45193 | 7.10293 | 2986 ft | 175 kts | 231° |
| 2026-05-04 19:16 | 51.44456 | 7.08743 | 3005 ft | 175 kts | 231° |
| 2026-05-04 19:16 | 51.43718 | 7.07197 | 3015 ft | 174 kts | 231° |
| 2026-05-04 19:17 | 51.42988 | 7.05669 | 3007 ft | 173 kts | 231° |
| 2026-05-04 19:17 | 51.42258 | 7.04135 | 2986 ft | 173 kts | 231° |
| 2026-05-04 19:17 | 51.41526 | 7.02593 | 2986 ft | 174 kts | 231° |
| 2026-05-04 19:17 | 51.40777 | 7.01013 | 2989 ft | 182 kts | 231° |
| 2026-05-04 19:18 | 51.40010 | 6.99388 | 2992 ft | 183 kts | 231° |
| 2026-05-04 19:18 | 51.39236 | 6.97752 | 2993 ft | 184 kts | 231° |
| 2026-05-04 19:18 | 51.38462 | 6.96114 | 2975 ft | 185 kts | 231° |
| 2026-05-04 19:18 | 51.37690 | 6.94486 | 2790 ft | 184 kts | 231° |
| 2026-05-04 19:19 | 51.36916 | 6.92853 | 2528 ft | 184 kts | 231° |
| 2026-05-04 19:19 | 51.36146 | 6.91230 | 2269 ft | 181 kts | 231° |
| 2026-05-04 19:19 | 51.35389 | 6.89633 | 2029 ft | 180 kts | 231° |
| 2026-05-04 19:19 | 51.34654 | 6.88062 | 1808 ft | 170 kts | 232° |
| 2026-05-04 19:20 | 51.33985 | 6.86599 | 1557 ft | 156 kts | 231° |
| 2026-05-04 19:20 | 51.33349 | 6.85257 | 1328 ft | 147 kts | 230° |
| 2026-05-04 19:20 | 51.32752 | 6.83985 | 1091 ft | 140 kts | 230° |
| 2026-05-04 19:20 | 51.32178 | 6.82746 | 935 ft | 137 kts | 229° |
| 2026-05-04 19:21 | 51.31556 | 6.81576 | 776 ft | 141 kts | 227° |
| 2026-05-04 19:21 | 51.30975 | 6.80334 | 585 ft | 139 kts | 231° |
| 2026-05-04 19:21 | 51.30397 | 6.79101 | 406 ft | 140 kts | 230° |
| 2026-05-04 19:21 | 51.29813 | 6.77890 | 239 ft | 137 kts | 229° |
| 2026-05-04 19:22 | 51.29244 | 6.76716 | 129 ft | 124 kts | 231° |
| 2026-05-04 19:22 | 51.28865 | 6.75914 | 122 ft | 66 kts | 233° |
| 2026-05-04 19:22 | 51.28633 | 6.75428 | 128 ft | 22 kts | 232° |
| 2026-05-04 19:22 | 51.28557 | 6.75271 | 130 ft | 19 kts | 232° |
| 2026-05-04 19:23 | 51.28456 | 6.75070 | 125 ft | 26 kts | 227° |
| 2026-05-04 19:23 | 51.28324 | 6.74978 | 126 ft | 15 kts | 170° |
| 2026-05-04 19:23 | 51.28259 | 6.75016 | 122 ft | 11 kts | 154° |
| 2026-05-04 19:23 | 51.28178 | 6.75080 | 120 ft | 16 kts | 154° |
| 2026-05-04 19:24 | 51.28109 | 6.75135 | 120 ft | 0 kts | 153° |
| 2026-05-04 19:24 | 51.28099 | 6.75143 | 119 ft | 0 kts | 153° |
| 2026-05-04 19:32 | 51.28096 | 6.75145 | 124 ft | 2 kts | 153° |
| 2026-05-04 19:32 | 51.28072 | 6.75165 | 120 ft | 6 kts | 153° |
| 2026-05-04 19:32 | 51.28022 | 6.75205 | 122 ft | 10 kts | 153° |
| 2026-05-04 19:33 | 51.27941 | 6.75271 | 119 ft | 15 kts | 153° |
| 2026-05-04 19:33 | 51.27882 | 6.75318 | 120 ft | 0 kts | 153° |
| 2026-05-04 19:35 | 51.27874 | 6.75324 | 121 ft | 2 kts | 153° |
| 2026-05-04 19:35 | 51.27856 | 6.75342 | 122 ft | 4 kts | 142° |
| 2026-05-04 19:35 | 51.27845 | 6.75385 | 123 ft | 5 kts | 94° |
| 2026-05-04 19:35 | 51.27862 | 6.75456 | 122 ft | 9 kts | 59° |
| 2026-05-04 19:36 | 51.27894 | 6.75525 | 122 ft | 0 kts | 52° |
| 2026-05-04 19:36 | 51.27901 | 6.75540 | 122 ft | 12 kts | 52° |
| 2026-05-04 19:36 | 51.27998 | 6.75743 | 120 ft | 0 kts | 53° |
| 2026-05-04 19:36 | 51.28005 | 6.75758 | 120 ft | 4 kts | 52° |
| 2026-05-04 19:37 | 51.28034 | 6.75820 | 122 ft | 9 kts | 53° |
| 2026-05-04 19:37 | 51.28059 | 6.75872 | 126 ft | 0 kts | 52° |
| 2026-05-04 19:38 | 51.28061 | 6.75876 | 127 ft | 2 kts | 52° |
| 2026-05-04 19:39 | 51.28074 | 6.75904 | 127 ft | 5 kts | 53° |
| 2026-05-04 19:39 | 51.28093 | 6.75943 | 132 ft | 0 kts | 53° |
| 2026-05-04 19:39 | 51.28103 | 6.75965 | 132 ft | 5 kts | 53° |
| 2026-05-04 19:39 | 51.28109 | 6.75978 | 134 ft | 0 kts | 53° |
| 2026-05-04 19:40 | 51.28110 | 6.75980 | 134 ft | 2 kts | 53° |
| 2026-05-04 19:40 | 51.28130 | 6.76022 | 134 ft | 8 kts | 53° |
| 2026-05-04 19:40 | 51.28180 | 6.76115 | 123 ft | 14 kts | 45° |
| 2026-05-04 19:41 | 51.28240 | 6.76250 | 127 ft | 17 kts | 56° |
| 2026-05-04 19:41 | 51.28322 | 6.76424 | 126 ft | 22 kts | 52° |
| 2026-05-04 19:41 | 51.28389 | 6.76565 | 127 ft | 0 kts | 53° |
| 2026-05-04 19:41 | 51.28399 | 6.76590 | 122 ft | 5 kts | 58° |
| 2026-05-04 19:42 | 51.28406 | 6.76661 | 130 ft | 8 kts | 105° |
| 2026-05-04 19:42 | 51.28367 | 6.76738 | 127 ft | 11 kts | 139° |
| 2026-05-04 19:42 | 51.28297 | 6.76820 | 127 ft | 11 kts | 144° |
| 2026-05-04 19:42 | 51.28247 | 6.76847 | 131 ft | 0 kts | 175° |
| 2026-05-04 19:43 | 51.28230 | 6.76846 | 133 ft | 4 kts | 185° |
| 2026-05-04 19:43 | 51.28211 | 6.76814 | 128 ft | 5 kts | 241° |
| 2026-05-04 19:43 | 51.28206 | 6.76764 | 126 ft | 0 kts | 273° |
| 2026-05-04 19:43 | 51.28206 | 6.76760 | 126 ft | 0 kts | 274° |